sensor_id;sensor_type;location;lat;lon;timestamp;P1;durP1;ratioP1;P2;durP2;ratioP2
22778;SDS011;11556;51.194;3.800;2023-02-01T00:01:36;28.58;;;7.78;;
22778;SDS011;11556;51.194;3.800;2023-02-01T00:04:02;28.45;;;6.95;;
22778;SDS011;11556;51.194;3.800;2023-02-01T00:06:27;31.83;;;6.60;;
22778;SDS011;11556;51.194;3.800;2023-02-01T00:08:53;33.03;;;7.05;;
22778;SDS011;11556;51.194;3.800;2023-02-01T00:11:20;30.55;;;8.00;;
22778;SDS011;11556;51.194;3.800;2023-02-01T00:13:46;29.45;;;6.80;;
22778;SDS011;11556;51.194;3.800;2023-02-01T00:16:13;33.13;;;7.05;;
22778;SDS011;11556;51.194;3.800;2023-02-01T00:18:41;29.50;;;6.80;;
22778;SDS011;11556;51.194;3.800;2023-02-01T00:21:07;29.10;;;6.18;;
22778;SDS011;11556;51.194;3.800;2023-02-01T00:23:35;26.45;;;5.82;;
22778;SDS011;11556;51.194;3.800;2023-02-01T00:26:02;26.30;;;5.45;;
22778;SDS011;11556;51.194;3.800;2023-02-01T00:28:29;28.48;;;5.07;;
22778;SDS011;11556;51.194;3.800;2023-02-01T00:30:56;24.20;;;4.72;;
22778;SDS011;11556;51.194;3.800;2023-02-01T00:33:22;24.40;;;5.10;;
22778;SDS011;11556;51.194;3.800;2023-02-01T00:35:48;26.20;;;5.30;;
22778;SDS011;11556;51.194;3.800;2023-02-01T00:38:13;29.17;;;5.53;;
22778;SDS011;11556;51.194;3.800;2023-02-01T00:40:39;32.08;;;5.63;;
22778;SDS011;11556;51.194;3.800;2023-02-01T00:43:05;27.38;;;5.07;;
22778;SDS011;11556;51.194;3.800;2023-02-01T00:45:30;33.58;;;5.10;;
22778;SDS011;11556;51.194;3.800;2023-02-01T00:47:56;28.10;;;5.45;;
22778;SDS011;11556;51.194;3.800;2023-02-01T00:50:21;28.88;;;5.32;;
22778;SDS011;11556;51.194;3.800;2023-02-01T00:52:47;30.08;;;5.32;;
22778;SDS011;11556;51.194;3.800;2023-02-01T00:55:12;23.25;;;5.18;;
22778;SDS011;11556;51.194;3.800;2023-02-01T00:57:38;25.52;;;4.55;;
22778;SDS011;11556;51.194;3.800;2023-02-01T01:00:04;28.60;;;4.95;;
22778;SDS011;11556;51.194;3.800;2023-02-01T01:02:30;31.65;;;4.80;;
22778;SDS011;11556;51.194;3.800;2023-02-01T01:04:55;20.02;;;4.60;;
22778;SDS011;11556;51.194;3.800;2023-02-01T01:07:21;29.70;;;4.57;;
22778;SDS011;11556;51.194;3.800;2023-02-01T01:09:46;24.52;;;3.88;;
22778;SDS011;11556;51.194;3.800;2023-02-01T01:12:12;25.33;;;5.13;;
22778;SDS011;11556;51.194;3.800;2023-02-01T01:14:38;23.98;;;3.75;;
22778;SDS011;11556;51.194;3.800;2023-02-01T01:17:03;25.08;;;3.72;;
22778;SDS011;11556;51.194;3.800;2023-02-01T01:19:29;24.13;;;4.25;;
22778;SDS011;11556;51.194;3.800;2023-02-01T01:21:54;26.85;;;4.47;;
22778;SDS011;11556;51.194;3.800;2023-02-01T01:24:20;24.35;;;4.43;;
22778;SDS011;11556;51.194;3.800;2023-02-01T01:26:45;20.50;;;3.85;;
22778;SDS011;11556;51.194;3.800;2023-02-01T01:29:11;33.25;;;4.53;;
22778;SDS011;11556;51.194;3.800;2023-02-01T01:31:37;21.15;;;3.95;;
22778;SDS011;11556;51.194;3.800;2023-02-01T01:34:02;22.92;;;4.25;;
22778;SDS011;11556;51.194;3.800;2023-02-01T01:36:28;26.33;;;3.97;;
22778;SDS011;11556;51.194;3.800;2023-02-01T01:38:54;25.60;;;4.22;;
22778;SDS011;11556;51.194;3.800;2023-02-01T01:41:24;24.92;;;4.03;;
22778;SDS011;11556;51.194;3.800;2023-02-01T01:43:58;17.45;;;3.58;;
22778;SDS011;11556;51.194;3.800;2023-02-01T01:46:29;26.13;;;3.70;;
22778;SDS011;11556;51.194;3.800;2023-02-01T01:49:12;24.88;;;3.90;;
22778;SDS011;11556;51.194;3.800;2023-02-01T01:51:43;25.05;;;4.03;;
22778;SDS011;11556;51.194;3.800;2023-02-01T01:56:58;26.15;;;4.13;;
22778;SDS011;11556;51.194;3.800;2023-02-01T01:59:26;22.88;;;3.50;;
22778;SDS011;11556;51.194;3.800;2023-02-01T02:01:52;28.33;;;3.65;;
22778;SDS011;11556;51.194;3.800;2023-02-01T02:04:19;25.20;;;3.47;;
22778;SDS011;11556;51.194;3.800;2023-02-01T02:06:54;24.10;;;3.30;;
22778;SDS011;11556;51.194;3.800;2023-02-01T02:09:25;20.73;;;3.45;;
22778;SDS011;11556;51.194;3.800;2023-02-01T02:11:51;20.38;;;4.05;;
22778;SDS011;11556;51.194;3.800;2023-02-01T02:14:17;19.38;;;3.33;;
22778;SDS011;11556;51.194;3.800;2023-02-01T02:16:51;21.13;;;3.90;;
22778;SDS011;11556;51.194;3.800;2023-02-01T02:19:38;25.25;;;4.00;;
22778;SDS011;11556;51.194;3.800;2023-02-01T02:36:38;20.02;;;3.75;;
22778;SDS011;11556;51.194;3.800;2023-02-01T02:42:12;25.48;;;3.55;;
22778;SDS011;11556;51.194;3.800;2023-02-01T02:48:11;21.17;;;3.78;;
22778;SDS011;11556;51.194;3.800;2023-02-01T02:53:59;17.75;;;3.53;;
22778;SDS011;11556;51.194;3.800;2023-02-01T02:56:44;26.45;;;4.13;;
22778;SDS011;11556;51.194;3.800;2023-02-01T02:59:28;30.67;;;4.10;;
22778;SDS011;11556;51.194;3.800;2023-02-01T03:02:14;26.83;;;3.75;;
22778;SDS011;11556;51.194;3.800;2023-02-01T03:05:00;22.65;;;3.75;;
22778;SDS011;11556;51.194;3.800;2023-02-01T03:10:28;32.28;;;4.22;;
22778;SDS011;11556;51.194;3.800;2023-02-01T03:19:00;26.27;;;3.83;;
22778;SDS011;11556;51.194;3.800;2023-02-01T03:24:29;28.48;;;4.13;;
22778;SDS011;11556;51.194;3.800;2023-02-01T03:29:51;29.38;;;3.83;;
22778;SDS011;11556;51.194;3.800;2023-02-01T03:32:31;32.38;;;4.05;;
22778;SDS011;11556;51.194;3.800;2023-02-01T03:35:18;27.77;;;4.47;;
22778;SDS011;11556;51.194;3.800;2023-02-01T03:38:32;22.45;;;4.57;;
22778;SDS011;11556;51.194;3.800;2023-02-01T03:41:24;26.27;;;4.05;;
22778;SDS011;11556;51.194;3.800;2023-02-01T03:44:13;28.73;;;4.85;;
22778;SDS011;11556;51.194;3.800;2023-02-01T03:46:50;26.75;;;4.18;;
22778;SDS011;11556;51.194;3.800;2023-02-01T03:51:58;27.40;;;4.18;;
22778;SDS011;11556;51.194;3.800;2023-02-01T03:54:27;30.73;;;4.63;;
22778;SDS011;11556;51.194;3.800;2023-02-01T03:56:55;41.38;;;5.00;;
22778;SDS011;11556;51.194;3.800;2023-02-01T03:59:24;36.00;;;4.57;;
22778;SDS011;11556;51.194;3.800;2023-02-01T04:01:49;26.73;;;4.20;;
22778;SDS011;11556;51.194;3.800;2023-02-01T04:04:15;25.50;;;4.18;;
22778;SDS011;11556;51.194;3.800;2023-02-01T04:06:45;32.63;;;4.57;;
22778;SDS011;11556;51.194;3.800;2023-02-01T04:09:14;31.55;;;4.55;;
22778;SDS011;11556;51.194;3.800;2023-02-01T04:11:40;35.90;;;4.85;;
22778;SDS011;11556;51.194;3.800;2023-02-01T04:14:06;25.70;;;4.20;;
22778;SDS011;11556;51.194;3.800;2023-02-01T04:16:32;25.80;;;4.28;;
22778;SDS011;11556;51.194;3.800;2023-02-01T04:18:58;27.45;;;4.28;;
22778;SDS011;11556;51.194;3.800;2023-02-01T04:21:25;31.98;;;4.43;;
22778;SDS011;11556;51.194;3.800;2023-02-01T04:23:51;29.48;;;3.95;;
22778;SDS011;11556;51.194;3.800;2023-02-01T04:26:17;28.17;;;4.15;;
22778;SDS011;11556;51.194;3.800;2023-02-01T04:28:44;35.70;;;4.55;;
22778;SDS011;11556;51.194;3.800;2023-02-01T04:31:12;26.77;;;4.43;;
22778;SDS011;11556;51.194;3.800;2023-02-01T04:33:38;26.10;;;4.13;;
22778;SDS011;11556;51.194;3.800;2023-02-01T04:36:04;25.58;;;4.82;;
22778;SDS011;11556;51.194;3.800;2023-02-01T04:38:30;27.85;;;4.72;;
22778;SDS011;11556;51.194;3.800;2023-02-01T04:40:57;30.90;;;4.80;;
22778;SDS011;11556;51.194;3.800;2023-02-01T04:43:23;32.65;;;4.57;;
22778;SDS011;11556;51.194;3.800;2023-02-01T04:45:48;33.83;;;4.80;;
22778;SDS011;11556;51.194;3.800;2023-02-01T04:48:18;33.85;;;4.38;;
22778;SDS011;11556;51.194;3.800;2023-02-01T04:50:45;20.05;;;3.78;;
22778;SDS011;11556;51.194;3.800;2023-02-01T04:53:13;29.38;;;4.82;;
22778;SDS011;11556;51.194;3.800;2023-02-01T04:55:41;27.25;;;4.00;;
22778;SDS011;11556;51.194;3.800;2023-02-01T04:58:07;28.23;;;4.40;;
22778;SDS011;11556;51.194;3.800;2023-02-01T05:00:34;32.70;;;5.05;;
22778;SDS011;11556;51.194;3.800;2023-02-01T05:02:59;30.80;;;4.32;;
22778;SDS011;11556;51.194;3.800;2023-02-01T05:05:26;26.95;;;4.13;;
22778;SDS011;11556;51.194;3.800;2023-02-01T05:07:52;22.83;;;3.78;;
22778;SDS011;11556;51.194;3.800;2023-02-01T05:10:18;26.83;;;5.35;;
22778;SDS011;11556;51.194;3.800;2023-02-01T05:12:43;21.92;;;4.07;;
22778;SDS011;11556;51.194;3.800;2023-02-01T05:15:28;25.95;;;4.45;;
22778;SDS011;11556;51.194;3.800;2023-02-01T05:17:54;33.83;;;4.57;;
22778;SDS011;11556;51.194;3.800;2023-02-01T05:20:20;29.73;;;3.95;;
22778;SDS011;11556;51.194;3.800;2023-02-01T05:22:46;26.55;;;3.67;;
22778;SDS011;11556;51.194;3.800;2023-02-01T05:25:11;29.25;;;4.05;;
22778;SDS011;11556;51.194;3.800;2023-02-01T05:27:37;22.02;;;4.10;;
22778;SDS011;11556;51.194;3.800;2023-02-01T05:30:06;20.58;;;3.88;;
22778;SDS011;11556;51.194;3.800;2023-02-01T05:32:32;25.30;;;4.30;;
22778;SDS011;11556;51.194;3.800;2023-02-01T05:34:59;24.77;;;4.15;;
22778;SDS011;11556;51.194;3.800;2023-02-01T05:37:25;22.70;;;3.90;;
22778;SDS011;11556;51.194;3.800;2023-02-01T05:39:51;20.77;;;3.80;;
22778;SDS011;11556;51.194;3.800;2023-02-01T05:42:17;23.98;;;4.30;;
22778;SDS011;11556;51.194;3.800;2023-02-01T05:44:42;28.35;;;3.75;;
22778;SDS011;11556;51.194;3.800;2023-02-01T05:47:08;26.75;;;3.78;;
22778;SDS011;11556;51.194;3.800;2023-02-01T05:49:34;20.98;;;3.33;;
22778;SDS011;11556;51.194;3.800;2023-02-01T05:51:59;26.70;;;3.88;;
22778;SDS011;11556;51.194;3.800;2023-02-01T05:54:25;23.70;;;3.42;;
22778;SDS011;11556;51.194;3.800;2023-02-01T05:56:51;22.90;;;3.20;;
22778;SDS011;11556;51.194;3.800;2023-02-01T05:59:16;25.83;;;3.92;;
22778;SDS011;11556;51.194;3.800;2023-02-01T06:01:42;29.52;;;4.05;;
22778;SDS011;11556;51.194;3.800;2023-02-01T06:04:07;23.05;;;4.13;;
22778;SDS011;11556;51.194;3.800;2023-02-01T06:06:33;21.85;;;4.15;;
22778;SDS011;11556;51.194;3.800;2023-02-01T06:08:59;25.98;;;4.00;;
22778;SDS011;11556;51.194;3.800;2023-02-01T06:11:25;26.52;;;4.93;;
22778;SDS011;11556;51.194;3.800;2023-02-01T06:13:51;22.83;;;4.32;;
22778;SDS011;11556;51.194;3.800;2023-02-01T06:16:16;27.80;;;4.57;;
22778;SDS011;11556;51.194;3.800;2023-02-01T06:18:42;27.70;;;4.65;;
22778;SDS011;11556;51.194;3.800;2023-02-01T06:21:08;27.27;;;4.57;;
22778;SDS011;11556;51.194;3.800;2023-02-01T06:23:34;25.95;;;4.50;;
22778;SDS011;11556;51.194;3.800;2023-02-01T06:26:00;27.23;;;4.78;;
22778;SDS011;11556;51.194;3.800;2023-02-01T06:28:29;22.50;;;4.05;;
22778;SDS011;11556;51.194;3.800;2023-02-01T06:30:55;23.52;;;4.80;;
22778;SDS011;11556;51.194;3.800;2023-02-01T06:33:22;26.45;;;5.45;;
22778;SDS011;11556;51.194;3.800;2023-02-01T06:35:49;34.47;;;4.95;;
22778;SDS011;11556;51.194;3.800;2023-02-01T06:38:22;28.10;;;4.43;;
22778;SDS011;11556;51.194;3.800;2023-02-01T06:40:51;20.52;;;4.70;;
22778;SDS011;11556;51.194;3.800;2023-02-01T06:43:21;23.65;;;4.60;;
22778;SDS011;11556;51.194;3.800;2023-02-01T06:45:47;26.77;;;4.82;;
22778;SDS011;11556;51.194;3.800;2023-02-01T06:48:13;31.08;;;4.95;;
22778;SDS011;11556;51.194;3.800;2023-02-01T06:50:38;30.10;;;4.85;;
22778;SDS011;11556;51.194;3.800;2023-02-01T06:53:04;25.55;;;4.72;;
22778;SDS011;11556;51.194;3.800;2023-02-01T06:55:29;28.10;;;4.88;;
22778;SDS011;11556;51.194;3.800;2023-02-01T06:57:55;27.08;;;4.53;;
22778;SDS011;11556;51.194;3.800;2023-02-01T07:00:21;23.92;;;4.13;;
22778;SDS011;11556;51.194;3.800;2023-02-01T07:02:48;23.67;;;4.55;;
22778;SDS011;11556;51.194;3.800;2023-02-01T07:05:14;40.50;;;5.90;;
22778;SDS011;11556;51.194;3.800;2023-02-01T07:07:40;29.40;;;4.47;;
22778;SDS011;11556;51.194;3.800;2023-02-01T07:10:07;28.08;;;4.70;;
22778;SDS011;11556;51.194;3.800;2023-02-01T07:12:34;24.15;;;4.30;;
22778;SDS011;11556;51.194;3.800;2023-02-01T07:14:59;23.27;;;4.82;;
22778;SDS011;11556;51.194;3.800;2023-02-01T07:17:27;32.35;;;5.32;;
22778;SDS011;11556;51.194;3.800;2023-02-01T07:19:54;32.17;;;4.30;;
22778;SDS011;11556;51.194;3.800;2023-02-01T07:22:20;28.23;;;4.72;;
22778;SDS011;11556;51.194;3.800;2023-02-01T07:24:45;25.50;;;4.57;;
22778;SDS011;11556;51.194;3.800;2023-02-01T07:27:11;27.90;;;4.60;;
22778;SDS011;11556;51.194;3.800;2023-02-01T07:29:37;33.05;;;4.82;;
22778;SDS011;11556;51.194;3.800;2023-02-01T07:32:02;21.65;;;4.65;;
22778;SDS011;11556;51.194;3.800;2023-02-01T07:34:28;25.60;;;4.93;;
22778;SDS011;11556;51.194;3.800;2023-02-01T07:36:55;22.00;;;5.50;;
22778;SDS011;11556;51.194;3.800;2023-02-01T07:39:21;37.22;;;7.97;;
22778;SDS011;11556;51.194;3.800;2023-02-01T07:41:47;25.95;;;5.07;;
22778;SDS011;11556;51.194;3.800;2023-02-01T07:44:12;31.88;;;5.82;;
22778;SDS011;11556;51.194;3.800;2023-02-01T07:46:38;28.83;;;5.05;;
22778;SDS011;11556;51.194;3.800;2023-02-01T07:49:04;26.40;;;5.55;;
22778;SDS011;11556;51.194;3.800;2023-02-01T07:51:30;27.73;;;4.30;;
22778;SDS011;11556;51.194;3.800;2023-02-01T07:53:56;28.35;;;4.82;;
22778;SDS011;11556;51.194;3.800;2023-02-01T07:56:22;29.88;;;5.35;;
22778;SDS011;11556;51.194;3.800;2023-02-01T07:58:48;31.45;;;5.25;;
22778;SDS011;11556;51.194;3.800;2023-02-01T08:01:16;29.35;;;4.78;;
22778;SDS011;11556;51.194;3.800;2023-02-01T08:03:47;33.55;;;4.65;;
22778;SDS011;11556;51.194;3.800;2023-02-01T08:06:13;31.25;;;5.35;;
22778;SDS011;11556;51.194;3.800;2023-02-01T08:08:38;26.10;;;4.88;;
22778;SDS011;11556;51.194;3.800;2023-02-01T08:11:05;31.67;;;5.60;;
22778;SDS011;11556;51.194;3.800;2023-02-01T08:13:32;28.50;;;4.85;;
22778;SDS011;11556;51.194;3.800;2023-02-01T08:15:59;29.80;;;5.40;;
22778;SDS011;11556;51.194;3.800;2023-02-01T08:18:26;27.50;;;5.20;;
22778;SDS011;11556;51.194;3.800;2023-02-01T08:20:51;25.25;;;4.45;;
22778;SDS011;11556;51.194;3.800;2023-02-01T08:23:17;25.50;;;4.22;;
22778;SDS011;11556;51.194;3.800;2023-02-01T08:25:43;32.50;;;4.80;;
22778;SDS011;11556;51.194;3.800;2023-02-01T08:28:09;24.83;;;4.10;;
22778;SDS011;11556;51.194;3.800;2023-02-01T08:30:36;25.80;;;3.97;;
22778;SDS011;11556;51.194;3.800;2023-02-01T08:33:03;30.17;;;4.35;;
22778;SDS011;11556;51.194;3.800;2023-02-01T08:35:31;23.13;;;3.83;;
22778;SDS011;11556;51.194;3.800;2023-02-01T08:37:59;26.85;;;4.47;;
22778;SDS011;11556;51.194;3.800;2023-02-01T08:40:24;28.30;;;3.97;;
22778;SDS011;11556;51.194;3.800;2023-02-01T08:42:50;31.17;;;4.32;;
22778;SDS011;11556;51.194;3.800;2023-02-01T08:45:23;20.67;;;3.50;;
22778;SDS011;11556;51.194;3.800;2023-02-01T08:47:51;31.48;;;3.72;;
22778;SDS011;11556;51.194;3.800;2023-02-01T08:50:18;24.75;;;3.85;;
22778;SDS011;11556;51.194;3.800;2023-02-01T08:52:44;22.67;;;3.60;;
22778;SDS011;11556;51.194;3.800;2023-02-01T08:55:10;22.67;;;3.83;;
22778;SDS011;11556;51.194;3.800;2023-02-01T08:57:36;28.55;;;4.22;;
22778;SDS011;11556;51.194;3.800;2023-02-01T09:00:03;22.45;;;3.22;;
22778;SDS011;11556;51.194;3.800;2023-02-01T09:02:30;29.00;;;4.00;;
22778;SDS011;11556;51.194;3.800;2023-02-01T09:04:56;25.27;;;3.65;;
22778;SDS011;11556;51.194;3.800;2023-02-01T09:07:21;32.50;;;3.80;;
22778;SDS011;11556;51.194;3.800;2023-02-01T09:09:47;18.30;;;3.58;;
22778;SDS011;11556;51.194;3.800;2023-02-01T09:12:13;19.00;;;2.90;;
22778;SDS011;11556;51.194;3.800;2023-02-01T09:14:39;23.95;;;4.13;;
22778;SDS011;11556;51.194;3.800;2023-02-01T09:17:04;20.08;;;3.13;;
22778;SDS011;11556;51.194;3.800;2023-02-01T09:19:30;19.70;;;3.58;;
22778;SDS011;11556;51.194;3.800;2023-02-01T09:21:57;18.15;;;3.40;;
22778;SDS011;11556;51.194;3.800;2023-02-01T09:24:22;25.23;;;3.78;;
22778;SDS011;11556;51.194;3.800;2023-02-01T09:26:48;19.55;;;3.33;;
22778;SDS011;11556;51.194;3.800;2023-02-01T09:29:14;24.67;;;3.40;;
22778;SDS011;11556;51.194;3.800;2023-02-01T09:31:40;23.27;;;3.83;;
22778;SDS011;11556;51.194;3.800;2023-02-01T09:34:06;17.05;;;2.85;;
22778;SDS011;11556;51.194;3.800;2023-02-01T09:36:33;22.08;;;3.85;;
22778;SDS011;11556;51.194;3.800;2023-02-01T09:38:59;25.48;;;3.78;;
22778;SDS011;11556;51.194;3.800;2023-02-01T09:41:48;26.80;;;3.47;;
22778;SDS011;11556;51.194;3.800;2023-02-01T09:47:12;19.42;;;3.58;;
22778;SDS011;11556;51.194;3.800;2023-02-01T09:49:43;18.85;;;3.22;;
22778;SDS011;11556;51.194;3.800;2023-02-01T09:52:18;11.45;;;2.85;;
22778;SDS011;11556;51.194;3.800;2023-02-01T09:54:56;15.23;;;2.97;;
22778;SDS011;11556;51.194;3.800;2023-02-01T09:57:49;19.70;;;3.90;;
22778;SDS011;11556;51.194;3.800;2023-02-01T10:00:23;24.17;;;3.50;;
22778;SDS011;11556;51.194;3.800;2023-02-01T10:02:53;17.13;;;3.47;;
22778;SDS011;11556;51.194;3.800;2023-02-01T10:05:36;22.83;;;3.85;;
22778;SDS011;11556;51.194;3.800;2023-02-01T10:08:13;22.92;;;3.25;;
22778;SDS011;11556;51.194;3.800;2023-02-01T10:10:51;17.70;;;2.88;;
22778;SDS011;11556;51.194;3.800;2023-02-01T10:16:02;21.50;;;3.20;;
22778;SDS011;11556;51.194;3.800;2023-02-01T10:26:51;21.75;;;3.35;;
22778;SDS011;11556;51.194;3.800;2023-02-01T10:29:27;16.83;;;2.88;;
22778;SDS011;11556;51.194;3.800;2023-02-01T10:32:00;15.93;;;2.97;;
22778;SDS011;11556;51.194;3.800;2023-02-01T10:34:27;20.02;;;3.28;;
22778;SDS011;11556;51.194;3.800;2023-02-01T10:37:00;20.63;;;3.33;;
22778;SDS011;11556;51.194;3.800;2023-02-01T10:39:34;11.85;;;2.47;;
22778;SDS011;11556;51.194;3.800;2023-02-01T10:42:02;13.45;;;2.65;;
22778;SDS011;11556;51.194;3.800;2023-02-01T10:44:28;9.23;;;2.50;;
22778;SDS011;11556;51.194;3.800;2023-02-01T10:46:56;16.33;;;2.80;;
22778;SDS011;11556;51.194;3.800;2023-02-01T10:52:06;12.50;;;2.45;;
22778;SDS011;11556;51.194;3.800;2023-02-01T10:54:45;14.73;;;2.88;;
22778;SDS011;11556;51.194;3.800;2023-02-01T10:57:19;13.65;;;2.53;;
22778;SDS011;11556;51.194;3.800;2023-02-01T10:59:51;15.02;;;2.88;;
22778;SDS011;11556;51.194;3.800;2023-02-01T11:02:29;14.30;;;2.67;;
22778;SDS011;11556;51.194;3.800;2023-02-01T11:05:07;18.88;;;3.17;;
22778;SDS011;11556;51.194;3.800;2023-02-01T11:07:35;12.13;;;2.78;;
22778;SDS011;11556;51.194;3.800;2023-02-01T11:10:02;13.32;;;2.55;;
22778;SDS011;11556;51.194;3.800;2023-02-01T11:14:57;17.73;;;3.03;;
22778;SDS011;11556;51.194;3.800;2023-02-01T11:17:27;13.55;;;2.40;;
22778;SDS011;11556;51.194;3.800;2023-02-01T11:20:05;14.60;;;2.25;;
22778;SDS011;11556;51.194;3.800;2023-02-01T11:22:38;15.98;;;2.63;;
22778;SDS011;11556;51.194;3.800;2023-02-01T11:25:17;16.70;;;2.30;;
22778;SDS011;11556;51.194;3.800;2023-02-01T11:27:43;10.82;;;2.17;;
22778;SDS011;11556;51.194;3.800;2023-02-01T11:30:13;12.57;;;2.03;;
22778;SDS011;11556;51.194;3.800;2023-02-01T11:32:42;15.60;;;2.65;;
22778;SDS011;11556;51.194;3.800;2023-02-01T11:35:11;15.35;;;2.65;;
22778;SDS011;11556;51.194;3.800;2023-02-01T11:37:42;12.50;;;2.53;;
22778;SDS011;11556;51.194;3.800;2023-02-01T11:43:07;13.90;;;2.10;;
22778;SDS011;11556;51.194;3.800;2023-02-01T11:45:53;12.10;;;1.88;;
22778;SDS011;11556;51.194;3.800;2023-02-01T11:48:23;10.75;;;2.03;;
22778;SDS011;11556;51.194;3.800;2023-02-01T11:54:08;8.80;;;2.17;;
22778;SDS011;11556;51.194;3.800;2023-02-01T11:56:37;9.70;;;1.80;;
22778;SDS011;11556;51.194;3.800;2023-02-01T12:08:01;15.40;;;2.40;;
22778;SDS011;11556;51.194;3.800;2023-02-01T12:10:40;11.07;;;1.95;;
22778;SDS011;11556;51.194;3.800;2023-02-01T12:24:11;8.77;;;2.05;;
22778;SDS011;11556;51.194;3.800;2023-02-01T12:26:55;13.48;;;2.53;;
22778;SDS011;11556;51.194;3.800;2023-02-01T12:29:29;13.70;;;2.45;;
22778;SDS011;11556;51.194;3.800;2023-02-01T12:40:21;19.80;;;2.58;;
22778;SDS011;11556;51.194;3.800;2023-02-01T12:43:03;13.70;;;2.28;;
22778;SDS011;11556;51.194;3.800;2023-02-01T12:45:41;11.55;;;2.47;;
22778;SDS011;11556;51.194;3.800;2023-02-01T12:50:49;12.75;;;2.60;;
22778;SDS011;11556;51.194;3.800;2023-02-01T12:53:19;17.55;;;3.03;;
22778;SDS011;11556;51.194;3.800;2023-02-01T12:58:38;12.90;;;2.55;;
22778;SDS011;11556;51.194;3.800;2023-02-01T13:01:11;11.48;;;2.47;;
22778;SDS011;11556;51.194;3.800;2023-02-01T13:03:50;10.63;;;2.78;;
22778;SDS011;11556;51.194;3.800;2023-02-01T13:09:31;18.08;;;2.70;;
22778;SDS011;11556;51.194;3.800;2023-02-01T13:12:26;20.23;;;2.57;;
22778;SDS011;11556;51.194;3.800;2023-02-01T13:14:54;18.70;;;2.58;;
22778;SDS011;11556;51.194;3.800;2023-02-01T13:17:24;15.05;;;2.85;;
22778;SDS011;11556;51.194;3.800;2023-02-01T13:19:54;15.77;;;2.55;;
22778;SDS011;11556;51.194;3.800;2023-02-01T13:22:32;17.52;;;2.33;;
22778;SDS011;11556;51.194;3.800;2023-02-01T13:25:12;11.55;;;2.25;;
22778;SDS011;11556;51.194;3.800;2023-02-01T13:27:41;21.00;;;3.13;;
22778;SDS011;11556;51.194;3.800;2023-02-01T13:30:10;11.68;;;2.63;;
22778;SDS011;11556;51.194;3.800;2023-02-01T13:35:50;15.88;;;2.15;;
22778;SDS011;11556;51.194;3.800;2023-02-01T13:44:02;14.85;;;3.33;;
22778;SDS011;11556;51.194;3.800;2023-02-01T13:46:38;10.25;;;2.30;;
22778;SDS011;11556;51.194;3.800;2023-02-01T13:49:06;12.48;;;2.78;;
22778;SDS011;11556;51.194;3.800;2023-02-01T13:51:41;16.95;;;3.15;;
22778;SDS011;11556;51.194;3.800;2023-02-01T13:56:52;20.60;;;2.88;;
22778;SDS011;11556;51.194;3.800;2023-02-01T14:05:03;12.40;;;2.53;;
22778;SDS011;11556;51.194;3.800;2023-02-01T14:07:33;18.85;;;3.00;;
22778;SDS011;11556;51.194;3.800;2023-02-01T14:09:58;18.30;;;3.10;;
22778;SDS011;11556;51.194;3.800;2023-02-01T14:13:12;18.42;;;3.10;;
22778;SDS011;11556;51.194;3.800;2023-02-01T14:31:50;17.53;;;3.17;;
22778;SDS011;11556;51.194;3.800;2023-02-01T14:34:26;16.92;;;3.22;;
22778;SDS011;11556;51.194;3.800;2023-02-01T14:37:09;18.25;;;3.20;;
22778;SDS011;11556;51.194;3.800;2023-02-01T14:47:48;19.98;;;3.08;;
22778;SDS011;11556;51.194;3.800;2023-02-01T14:53:10;22.65;;;3.42;;
22778;SDS011;11556;51.194;3.800;2023-02-01T14:56:00;26.40;;;3.88;;
22778;SDS011;11556;51.194;3.800;2023-02-01T15:01:03;20.58;;;3.33;;
22778;SDS011;11556;51.194;3.800;2023-02-01T15:03:44;19.13;;;3.30;;
22778;SDS011;11556;51.194;3.800;2023-02-01T15:06:37;26.10;;;4.03;;
22778;SDS011;11556;51.194;3.800;2023-02-01T15:11:54;27.58;;;3.55;;
22778;SDS011;11556;51.194;3.800;2023-02-01T15:14:26;24.25;;;3.90;;
22778;SDS011;11556;51.194;3.800;2023-02-01T15:16:53;25.02;;;3.97;;
22778;SDS011;11556;51.194;3.800;2023-02-01T15:19:23;18.88;;;3.95;;
22778;SDS011;11556;51.194;3.800;2023-02-01T15:24:28;17.95;;;3.63;;
22778;SDS011;11556;51.194;3.800;2023-02-01T15:26:55;25.48;;;3.88;;
22778;SDS011;11556;51.194;3.800;2023-02-01T15:29:28;25.02;;;3.65;;
22778;SDS011;11556;51.194;3.800;2023-02-01T15:31:57;17.75;;;3.35;;
22778;SDS011;11556;51.194;3.800;2023-02-01T15:34:23;17.27;;;2.88;;
22778;SDS011;11556;51.194;3.800;2023-02-01T15:37:14;30.05;;;4.18;;
22778;SDS011;11556;51.194;3.800;2023-02-01T15:42:35;21.58;;;3.03;;
22778;SDS011;11556;51.194;3.800;2023-02-01T15:45:21;20.85;;;3.15;;
22778;SDS011;11556;51.194;3.800;2023-02-01T15:47:52;17.85;;;3.42;;
22778;SDS011;11556;51.194;3.800;2023-02-01T15:50:19;20.50;;;3.80;;
22778;SDS011;11556;51.194;3.800;2023-02-01T15:52:49;26.67;;;4.15;;
22778;SDS011;11556;51.194;3.800;2023-02-01T15:55:18;23.33;;;4.00;;
22778;SDS011;11556;51.194;3.800;2023-02-01T15:57:44;24.83;;;3.83;;
22778;SDS011;11556;51.194;3.800;2023-02-01T16:03:43;27.58;;;3.75;;
22778;SDS011;11556;51.194;3.800;2023-02-01T16:06:11;20.08;;;3.45;;
22778;SDS011;11556;51.194;3.800;2023-02-01T16:08:51;18.67;;;3.50;;
22778;SDS011;11556;51.194;3.800;2023-02-01T16:11:46;18.58;;;3.95;;
22778;SDS011;11556;51.194;3.800;2023-02-01T16:14:12;25.48;;;3.95;;
22778;SDS011;11556;51.194;3.800;2023-02-01T16:16:37;18.38;;;2.97;;
22778;SDS011;11556;51.194;3.800;2023-02-01T16:19:03;22.88;;;3.72;;
22778;SDS011;11556;51.194;3.800;2023-02-01T16:21:28;22.45;;;3.97;;
22778;SDS011;11556;51.194;3.800;2023-02-01T16:23:54;25.13;;;4.10;;
22778;SDS011;11556;51.194;3.800;2023-02-01T16:26:20;25.40;;;4.22;;
22778;SDS011;11556;51.194;3.800;2023-02-01T16:28:46;24.75;;;3.80;;
22778;SDS011;11556;51.194;3.800;2023-02-01T16:31:16;23.08;;;4.40;;
22778;SDS011;11556;51.194;3.800;2023-02-01T16:33:47;25.42;;;3.95;;
22778;SDS011;11556;51.194;3.800;2023-02-01T16:36:14;24.08;;;4.25;;
22778;SDS011;11556;51.194;3.800;2023-02-01T16:38:41;20.77;;;3.65;;
22778;SDS011;11556;51.194;3.800;2023-02-01T16:41:06;27.00;;;4.68;;
22778;SDS011;11556;51.194;3.800;2023-02-01T16:43:35;20.02;;;3.58;;
22778;SDS011;11556;51.194;3.800;2023-02-01T16:46:00;21.05;;;4.10;;
22778;SDS011;11556;51.194;3.800;2023-02-01T16:48:35;22.95;;;3.72;;
22778;SDS011;11556;51.194;3.800;2023-02-01T16:51:03;27.10;;;4.00;;
22778;SDS011;11556;51.194;3.800;2023-02-01T16:53:33;20.38;;;4.07;;
22778;SDS011;11556;51.194;3.800;2023-02-01T16:55:59;26.52;;;4.28;;
22778;SDS011;11556;51.194;3.800;2023-02-01T16:58:25;23.38;;;3.78;;
22778;SDS011;11556;51.194;3.800;2023-02-01T17:00:52;18.35;;;3.95;;
22778;SDS011;11556;51.194;3.800;2023-02-01T17:03:18;22.88;;;3.85;;
22778;SDS011;11556;51.194;3.800;2023-02-01T17:05:47;22.13;;;4.25;;
22778;SDS011;11556;51.194;3.800;2023-02-01T17:08:17;21.40;;;4.60;;
22778;SDS011;11556;51.194;3.800;2023-02-01T17:10:52;29.73;;;5.13;;
22778;SDS011;11556;51.194;3.800;2023-02-01T17:13:18;23.83;;;4.15;;
22778;SDS011;11556;51.194;3.800;2023-02-01T17:15:46;21.02;;;3.80;;
22778;SDS011;11556;51.194;3.800;2023-02-01T17:18:22;26.70;;;4.50;;
22778;SDS011;11556;51.194;3.800;2023-02-01T17:20:50;20.17;;;4.18;;
22778;SDS011;11556;51.194;3.800;2023-02-01T17:23:17;25.88;;;4.70;;
22778;SDS011;11556;51.194;3.800;2023-02-01T17:25:43;24.02;;;3.92;;
22778;SDS011;11556;51.194;3.800;2023-02-01T17:28:09;23.20;;;3.92;;
22778;SDS011;11556;51.194;3.800;2023-02-01T17:30:36;19.25;;;4.30;;
22778;SDS011;11556;51.194;3.800;2023-02-01T17:33:03;25.45;;;4.28;;
22778;SDS011;11556;51.194;3.800;2023-02-01T17:35:30;18.88;;;3.95;;